createdAt,value
2023-05-10T00:02:58.077Z,7.28
2023-05-10T00:06:01.036Z,7.35
2023-05-10T00:09:04.266Z,7.26
2023-05-10T00:12:07.235Z,7.28
2023-05-10T00:15:10.619Z,7.25
2023-05-10T00:18:13.396Z,7.08
2023-05-10T00:21:16.938Z,7.10
2023-05-10T00:24:19.901Z,7.12
2023-05-10T00:27:22.494Z,7.08
2023-05-10T00:30:25.590Z,7.02
2023-05-10T00:33:28.276Z,6.94
2023-05-10T00:36:32.494Z,6.88
2023-05-10T00:39:34.927Z,6.89
2023-05-10T00:42:38.457Z,6.94
2023-05-10T00:45:43.029Z,6.99
2023-05-10T00:48:46.506Z,6.93
2023-05-10T00:51:49.078Z,6.98
2023-05-10T00:54:53.679Z,6.86
2023-05-10T00:57:56.161Z,6.83
2023-05-10T01:01:00.078Z,6.73
2023-05-10T01:04:04.299Z,6.74
2023-05-10T01:07:07.184Z,6.67
2023-05-10T01:10:10.286Z,6.53
2023-05-10T01:13:13.974Z,6.43
2023-05-10T01:16:17.833Z,6.49
2023-05-10T01:19:24.269Z,6.48
2023-05-10T01:22:54.456Z,6.43
2023-05-10T01:26:25.592Z,6.36
2023-05-10T01:30:15.573Z,6.24
2023-05-10T01:33:21.666Z,6.17
2023-05-10T01:36:28.757Z,6.15
2023-05-10T01:39:42.219Z,6.18
2023-05-10T01:42:51.860Z,6.20
2023-05-10T01:46:19.440Z,6.14
2023-05-10T01:49:27.757Z,6.15
2023-05-10T01:52:37.704Z,6.09
2023-05-10T01:55:49.297Z,6.00
2023-05-10T01:58:53.349Z,5.97
2023-05-10T02:01:59.331Z,6.05
2023-05-10T02:05:02.256Z,5.99
2023-05-10T02:08:07.577Z,5.99
2023-05-10T02:11:12.467Z,5.98
2023-05-10T02:14:16.600Z,5.92
2023-05-10T02:17:19.952Z,5.91
2023-05-10T02:20:23.936Z,5.78
2023-05-10T02:23:27.622Z,5.77
2023-05-10T02:26:31.093Z,5.75
2023-05-10T02:29:34.754Z,5.59
2023-05-10T02:32:38.074Z,5.57
2023-05-10T02:35:41.026Z,5.56
2023-05-10T02:38:46.150Z,5.58
2023-05-10T02:41:50.403Z,5.49
2023-05-10T02:44:58.060Z,5.51
2023-05-10T02:48:01.592Z,5.47
2023-05-10T02:51:09.278Z,5.48
2023-05-10T02:54:14.810Z,5.50
2023-05-10T02:57:20.508Z,5.46
2023-05-10T03:00:23.302Z,5.43
2023-05-10T03:03:25.665Z,5.26
2023-05-10T03:06:29.912Z,5.13
2023-05-10T03:09:33.591Z,5.21
2023-05-10T03:13:14.447Z,5.16
2023-05-10T03:16:23.920Z,5.14
2023-05-10T03:20:00.182Z,5.10
2023-05-10T03:23:31.146Z,5.19
2023-05-10T03:26:34.939Z,5.14
2023-05-10T03:29:47.611Z,5.02
2023-05-10T03:32:50.947Z,5.20
2023-05-10T03:35:54.111Z,5.23
2023-05-10T03:38:56.980Z,5.24
2023-05-10T03:42:00.579Z,5.25
2023-05-10T03:45:04.101Z,5.17
2023-05-10T03:48:07.062Z,5.29
2023-05-10T03:51:09.907Z,5.23
2023-05-10T03:54:12.299Z,5.28
2023-05-10T03:57:14.972Z,5.22
2023-05-10T04:00:17.913Z,5.20
2023-05-10T04:03:27.117Z,5.23
2023-05-10T04:06:29.635Z,5.37
2023-05-10T04:09:32.683Z,5.38
2023-05-10T04:12:35.197Z,5.40
2023-05-10T04:15:37.972Z,5.45
2023-05-10T04:18:41.351Z,5.46
2023-05-10T04:21:44.052Z,5.59
2023-05-10T04:24:46.373Z,5.77
2023-05-10T04:27:49.019Z,5.83
2023-05-10T04:30:51.469Z,5.92
2023-05-10T04:33:54.270Z,5.98
2023-05-10T04:36:59.631Z,6.05
2023-05-10T04:40:02.410Z,6.17
2023-05-10T04:43:04.851Z,6.24
2023-05-10T04:46:08.822Z,6.39
2023-05-10T04:49:11.524Z,6.42
2023-05-10T04:52:14.844Z,6.58
2023-05-10T04:55:17.348Z,6.64
2023-05-10T04:58:20.171Z,6.70
2023-05-10T05:01:22.653Z,6.87
2023-05-10T05:04:25.435Z,7.02
2023-05-10T05:07:27.811Z,7.19
2023-05-10T05:10:31.135Z,7.33
2023-05-10T05:13:33.611Z,7.39
2023-05-10T05:16:36.484Z,7.60
2023-05-10T05:19:39.015Z,7.69
2023-05-10T05:22:41.880Z,7.91
2023-05-10T05:25:44.437Z,8.01
2023-05-10T05:28:47.298Z,8.19
2023-05-10T05:31:49.805Z,8.33
2023-05-10T05:34:52.866Z,8.54
2023-05-10T05:37:55.292Z,8.66
2023-05-10T05:40:58.119Z,8.99
2023-05-10T05:44:00.887Z,9.25
2023-05-10T05:47:03.661Z,9.57
2023-05-10T05:50:06.839Z,9.99
2023-05-10T05:53:10.094Z,10.41
2023-05-10T05:56:12.445Z,10.89
2023-05-10T05:59:15.943Z,11.29
2023-05-10T06:02:18.471Z,11.71
2023-05-10T06:05:22.116Z,12.09
2023-05-10T06:08:24.511Z,12.49
2023-05-10T06:11:27.418Z,12.93
2023-05-10T06:14:29.830Z,13.31
2023-05-10T06:17:32.646Z,13.82
2023-05-10T06:20:35.794Z,14.16
2023-05-10T06:23:38.517Z,14.49
2023-05-10T06:26:40.905Z,14.65
2023-05-10T06:29:43.678Z,15.23
2023-05-10T06:32:46.634Z,15.33
2023-05-10T06:35:49.898Z,15.63
2023-05-10T06:38:52.484Z,15.91
2023-05-10T06:41:55.706Z,16.19
2023-05-10T06:44:58.177Z,16.12
2023-05-10T06:48:00.990Z,16.50
2023-05-10T06:51:03.345Z,16.36
2023-05-10T06:54:06.249Z,16.49
2023-05-10T06:57:16.171Z,16.27
2023-05-10T07:00:22.788Z,16.86
2023-05-10T07:03:25.280Z,17.37
2023-05-10T07:06:33.514Z,16.91
2023-05-10T07:09:36.588Z,17.14
2023-05-10T07:12:39.740Z,17.20
2023-05-10T07:15:42.499Z,17.58
2023-05-10T07:18:45.296Z,18.08
2023-05-10T07:21:47.827Z,18.06
2023-05-10T07:24:50.670Z,18.35
2023-05-10T07:27:53.181Z,18.45
2023-05-10T07:30:56.062Z,18.53
2023-05-10T07:33:58.484Z,18.68
2023-05-10T07:37:01.828Z,18.92
2023-05-10T07:40:04.916Z,19.06
2023-05-10T07:43:07.730Z,19.01
2023-05-10T07:46:12.205Z,18.99
2023-05-10T07:49:15.194Z,18.59
2023-05-10T07:52:17.618Z,18.33
2023-05-10T07:55:22.403Z,18.40
2023-05-10T07:58:25.301Z,18.21
2023-05-10T08:01:31.002Z,18.47
2023-05-10T08:04:36.122Z,18.55
2023-05-10T08:07:39.220Z,18.88
2023-05-10T08:10:41.733Z,18.91
2023-05-10T08:13:45.630Z,19.24
2023-05-10T08:16:48.275Z,19.25
2023-05-10T08:19:51.163Z,19.21
2023-05-10T08:22:53.672Z,19.14
2023-05-10T08:25:56.411Z,19.15
2023-05-10T08:28:58.870Z,19.47
2023-05-10T08:32:02.148Z,19.89
2023-05-10T08:35:04.895Z,20.30
2023-05-10T08:38:07.628Z,20.15
2023-05-10T08:41:11.004Z,20.00
2023-05-10T08:44:14.280Z,19.86
2023-05-10T08:47:18.188Z,20.17
2023-05-10T08:50:23.009Z,20.36
2023-05-10T08:53:27.853Z,20.47
2023-05-10T08:56:30.628Z,20.73
2023-05-10T08:59:34.406Z,20.23
2023-05-10T09:02:38.662Z,20.10
2023-05-10T09:05:41.112Z,20.31
2023-05-10T09:08:44.158Z,20.11
2023-05-10T09:11:46.672Z,20.36
2023-05-10T09:14:50.188Z,20.45
2023-05-10T09:17:52.638Z,20.37
2023-05-10T09:20:56.156Z,20.58
2023-05-10T09:23:58.608Z,20.37
2023-05-10T09:27:03.204Z,20.59
2023-05-10T09:30:06.547Z,20.90
2023-05-10T09:33:09.262Z,20.94
2023-05-10T09:36:12.198Z,20.96
2023-05-10T09:39:14.984Z,21.27
2023-05-10T09:42:19.802Z,20.84
2023-05-10T09:45:24.183Z,21.34
2023-05-10T09:48:26.700Z,21.61
2023-05-10T09:51:29.408Z,21.22
2023-05-10T09:54:33.003Z,21.00
2023-05-10T09:57:35.714Z,21.16
2023-05-10T10:00:39.767Z,20.91
2023-05-10T10:03:43.707Z,21.18
2023-05-10T10:06:46.308Z,21.12
2023-05-10T10:09:49.056Z,21.06
2023-05-10T10:12:51.459Z,21.37
2023-05-10T10:15:55.939Z,21.04
2023-05-10T10:18:58.872Z,21.22
2023-05-10T10:22:01.704Z,21.25
2023-05-10T10:25:05.791Z,21.04
2023-05-10T10:28:48.980Z,20.99
2023-05-10T10:32:00.907Z,21.30
2023-05-10T10:35:04.020Z,21.62
2023-05-10T10:38:09.619Z,21.69
2023-05-10T10:41:27.919Z,21.78
2023-05-10T10:44:36.219Z,21.57
2023-05-10T10:47:38.935Z,21.71
2023-05-10T10:50:46.581Z,21.94
2023-05-10T10:53:49.593Z,22.20
2023-05-10T10:57:15.661Z,21.95
2023-05-10T11:00:34.393Z,22.15
2023-05-10T11:03:37.286Z,22.38
2023-05-10T11:06:41.482Z,22.51
2023-05-10T11:09:44.234Z,22.10
2023-05-10T11:12:55.382Z,22.48
2023-05-10T11:16:00.271Z,22.00
2023-05-10T11:19:13.366Z,22.27
2023-05-10T11:22:16.304Z,22.42
2023-05-10T11:25:19.367Z,22.27
2023-05-10T11:28:22.147Z,22.33
2023-05-10T11:31:25.122Z,22.37
2023-05-10T11:34:31.552Z,21.95
2023-05-10T11:37:35.499Z,22.00
2023-05-10T11:40:39.119Z,22.47
2023-05-10T11:43:42.210Z,22.65
2023-05-10T11:46:45.096Z,22.12
2023-05-10T11:49:48.913Z,21.52
2023-05-10T11:52:56.155Z,22.15
2023-05-10T11:56:08.877Z,21.95
2023-05-10T11:59:11.633Z,22.02
2023-05-10T12:02:17.146Z,21.81
2023-05-10T12:05:20.117Z,21.96
2023-05-10T12:08:25.439Z,22.09
2023-05-10T12:11:29.665Z,21.77
2023-05-10T12:14:36.356Z,21.88
2023-05-10T12:17:43.414Z,21.99
2023-05-10T12:20:46.076Z,21.72
2023-05-10T12:23:51.852Z,21.97
2023-05-10T12:30:14.790Z,21.51
2023-05-10T12:33:19.275Z,21.41
2023-05-10T12:36:24.882Z,21.51
2023-05-10T12:39:27.277Z,21.44
2023-05-10T12:42:30.436Z,21.07
2023-05-10T12:45:32.919Z,21.16
2023-05-10T12:48:37.206Z,21.31
2023-05-10T12:51:39.584Z,21.38
2023-05-10T12:54:42.511Z,21.15
2023-05-10T12:57:45.073Z,21.12
2023-05-10T13:00:48.152Z,21.23
2023-05-10T13:03:50.637Z,21.20
2023-05-10T13:06:53.480Z,21.13
2023-05-10T13:09:56.012Z,21.40
2023-05-10T13:13:01.763Z,21.42
2023-05-10T13:16:04.366Z,21.62
2023-05-10T13:19:08.057Z,21.25
2023-05-10T13:22:10.684Z,20.79
2023-05-10T13:25:13.743Z,21.11
2023-05-10T13:28:16.437Z,21.16
2023-05-10T13:31:19.235Z,20.78
2023-05-10T13:34:21.833Z,20.71
2023-05-10T13:37:24.549Z,20.94
2023-05-10T13:40:26.851Z,21.06
2023-05-10T13:43:30.660Z,20.97
2023-05-10T13:46:33.164Z,20.93
2023-05-10T13:49:37.445Z,21.09
2023-05-10T13:52:39.853Z,21.26
2023-05-10T13:55:42.696Z,21.28
2023-05-10T13:58:45.521Z,21.28
2023-05-10T14:01:48.574Z,20.94
2023-05-10T14:04:52.649Z,20.94
2023-05-10T14:07:55.689Z,20.73
2023-05-10T14:10:59.046Z,21.04
2023-05-10T14:14:01.947Z,21.17
2023-05-10T14:17:04.246Z,21.12
2023-05-10T14:20:07.778Z,20.88
2023-05-10T14:23:11.803Z,20.79
2023-05-10T14:26:14.935Z,20.84
2023-05-10T14:29:17.327Z,20.78
2023-05-10T14:32:20.130Z,21.00
2023-05-10T14:35:22.845Z,20.76
2023-05-10T14:38:25.861Z,20.72
2023-05-10T14:41:28.221Z,20.62
2023-05-10T14:44:30.880Z,20.71
2023-05-10T14:47:33.320Z,20.75
2023-05-10T14:50:37.499Z,20.68
2023-05-10T14:53:40.063Z,20.33
2023-05-10T14:56:42.950Z,20.44
2023-05-10T14:59:45.396Z,20.51
2023-05-10T15:02:49.483Z,20.63
2023-05-10T15:05:53.150Z,20.55
2023-05-10T15:08:55.795Z,20.28
2023-05-10T15:11:58.208Z,20.16
2023-05-10T15:15:00.839Z,20.05
2023-05-10T15:18:03.303Z,20.03
2023-05-10T15:21:07.157Z,20.26
2023-05-10T15:24:10.834Z,20.19
2023-05-10T15:27:13.734Z,20.20
2023-05-10T15:30:16.376Z,20.10
2023-05-10T15:33:19.357Z,20.06
2023-05-10T15:36:22.086Z,20.11
2023-05-10T15:39:24.896Z,20.28
2023-05-10T15:42:27.313Z,20.34
2023-05-10T15:45:30.254Z,20.27
2023-05-10T15:48:32.647Z,20.11
2023-05-10T15:51:36.647Z,19.92
2023-05-10T15:54:39.692Z,19.91
2023-05-10T15:57:43.945Z,20.08
2023-05-10T16:00:46.595Z,19.90
2023-05-10T16:03:49.463Z,19.89
2023-05-10T16:06:52.149Z,19.67
2023-05-10T16:09:55.360Z,19.54
2023-05-10T16:12:57.864Z,19.62
2023-05-10T16:16:01.528Z,19.49
2023-05-10T16:19:04.563Z,19.58
2023-05-10T16:22:07.858Z,19.73
2023-05-10T16:25:12.677Z,19.62
2023-05-10T16:28:16.153Z,19.40
2023-05-10T16:31:19.146Z,19.59
2023-05-10T16:34:24.548Z,19.45
2023-05-10T16:37:26.950Z,19.53
2023-05-10T16:40:29.860Z,19.43
2023-05-10T16:43:33.283Z,19.20
2023-05-10T16:46:35.980Z,19.04
2023-05-10T16:49:38.354Z,19.01
2023-05-10T16:52:41.297Z,18.94
2023-05-10T16:55:44.726Z,18.92
2023-05-10T16:58:50.217Z,18.76
2023-05-10T17:01:53.954Z,18.80
2023-05-10T17:04:57.093Z,18.85
2023-05-10T17:07:59.683Z,18.85
2023-05-10T17:11:05.661Z,18.78
2023-05-10T17:14:08.018Z,18.44
2023-05-10T17:17:11.472Z,18.36
2023-05-10T17:20:13.962Z,18.23
2023-05-10T17:23:17.484Z,17.99
2023-05-10T17:26:19.985Z,18.01
2023-05-10T17:29:22.703Z,17.80
2023-05-10T17:32:25.554Z,17.66
2023-05-10T17:35:31.600Z,17.63
2023-05-10T17:38:34.051Z,17.37
2023-05-10T17:41:36.895Z,17.21
2023-05-10T17:44:39.349Z,17.17
2023-05-10T17:47:42.928Z,16.87
2023-05-10T17:50:45.472Z,16.84
2023-05-10T17:53:48.282Z,16.76
2023-05-10T17:56:50.631Z,16.68
2023-05-10T17:59:53.378Z,16.60
2023-05-10T18:02:56.051Z,16.52
2023-05-10T18:05:58.924Z,16.56
2023-05-10T18:09:03.174Z,16.57
2023-05-10T18:12:07.183Z,16.42
2023-05-10T18:15:10.383Z,16.28
2023-05-10T18:18:13.455Z,16.30
2023-05-10T18:21:16.360Z,16.24
2023-05-10T18:24:30.498Z,16.10
2023-05-10T18:27:43.000Z,16.23
2023-05-10T18:30:46.288Z,16.20
2023-05-10T18:33:48.883Z,16.13
2023-05-10T18:36:52.823Z,16.09
2023-05-10T18:39:55.749Z,15.89
2023-05-10T18:42:58.741Z,15.82
2023-05-10T18:46:01.664Z,15.78
2023-05-10T18:49:05.921Z,15.73
2023-05-10T18:52:08.886Z,15.67
2023-05-10T18:55:13.308Z,15.47
2023-05-10T18:58:16.750Z,15.36
2023-05-10T19:01:24.344Z,15.24
2023-05-10T19:04:28.384Z,15.07
2023-05-10T19:07:31.553Z,14.88
2023-05-10T19:10:34.437Z,14.78
2023-05-10T19:13:38.098Z,14.70
2023-05-10T19:16:43.377Z,14.64
2023-05-10T19:19:48.736Z,14.54
2023-05-10T19:23:08.178Z,14.42
2023-05-10T19:26:13.129Z,14.28
2023-05-10T19:29:16.265Z,14.25
2023-05-10T19:32:19.787Z,14.17
2023-05-10T19:35:23.790Z,14.04
2023-05-10T19:38:27.077Z,13.90
2023-05-10T19:41:30.474Z,13.67
2023-05-10T19:44:34.523Z,13.60
2023-05-10T19:47:38.128Z,13.52
2023-05-10T19:50:41.742Z,13.43
2023-05-10T19:53:46.772Z,13.36
2023-05-10T19:56:49.974Z,13.32
2023-05-10T19:59:53.121Z,13.19
2023-05-10T20:02:57.305Z,13.09
2023-05-10T20:06:00.760Z,12.90
2023-05-10T20:09:03.898Z,12.86
2023-05-10T20:12:06.442Z,12.79
2023-05-10T20:15:10.672Z,12.73
2023-05-10T20:18:14.318Z,12.61
2023-05-10T20:21:17.398Z,12.62
2023-05-10T20:24:20.404Z,12.52
2023-05-10T20:27:23.178Z,12.32
2023-05-10T20:30:25.640Z,12.35
2023-05-10T20:33:28.750Z,12.33
2023-05-10T20:36:31.771Z,12.25
2023-05-10T20:39:35.038Z,12.18
2023-05-10T20:42:37.443Z,12.10
2023-05-10T20:45:40.371Z,12.00
2023-05-10T20:48:43.008Z,11.89
2023-05-10T20:51:45.867Z,11.86
2023-05-10T20:54:48.472Z,11.72
2023-05-10T20:57:51.814Z,11.57
2023-05-10T21:00:54.734Z,11.43
2023-05-10T21:03:57.660Z,11.27
2023-05-10T21:07:00.017Z,11.21
2023-05-10T21:10:03.449Z,11.13
2023-05-10T21:13:05.982Z,11.04
2023-05-10T21:16:08.768Z,10.90
2023-05-10T21:19:11.911Z,10.83
2023-05-10T21:22:14.689Z,10.73
2023-05-10T21:25:18.221Z,10.58
2023-05-10T21:28:21.074Z,10.50
2023-05-10T21:31:23.639Z,10.45
2023-05-10T21:34:26.973Z,10.34
2023-05-10T21:37:29.368Z,10.21
2023-05-10T21:40:32.018Z,10.16
2023-05-10T21:43:34.512Z,10.17
2023-05-10T21:46:37.279Z,10.22
2023-05-10T21:49:39.967Z,10.18
2023-05-10T21:52:42.614Z,10.19
2023-05-10T21:55:45.131Z,10.11
2023-05-10T21:58:47.971Z,10.14
2023-05-10T22:01:50.650Z,10.13
2023-05-10T22:04:53.421Z,10.10
2023-05-10T22:07:57.066Z,10.07
2023-05-10T22:10:59.736Z,9.97
2023-05-10T22:14:02.144Z,9.93
2023-05-10T22:17:04.899Z,9.89
2023-05-10T22:20:08.634Z,9.89
2023-05-10T22:23:11.464Z,9.83
2023-05-10T22:26:14.073Z,9.80
2023-05-10T22:29:17.183Z,9.80
2023-05-10T22:32:19.617Z,9.78
2023-05-10T22:35:23.227Z,9.75
2023-05-10T22:38:25.865Z,9.64
2023-05-10T22:41:28.574Z,9.67
2023-05-10T22:44:30.994Z,9.62
2023-05-10T22:47:33.959Z,9.60
2023-05-10T22:50:37.330Z,9.53
2023-05-10T22:53:40.095Z,9.48
2023-05-10T22:56:42.873Z,9.50
2023-05-10T22:59:45.641Z,9.49
2023-05-10T23:02:48.107Z,9.35
2023-05-10T23:05:51.162Z,9.34
2023-05-10T23:08:53.511Z,9.26
2023-05-10T23:11:56.485Z,9.26
2023-05-10T23:14:59.090Z,9.21
2023-05-10T23:18:01.997Z,9.17
2023-05-10T23:21:04.606Z,9.07
2023-05-10T23:24:08.802Z,9.02
2023-05-10T23:27:11.633Z,8.96
2023-05-10T23:30:14.523Z,8.92
2023-05-10T23:33:17.021Z,8.90
2023-05-10T23:36:19.742Z,8.85
2023-05-10T23:39:22.343Z,8.77
2023-05-10T23:42:24.987Z,8.78
2023-05-10T23:45:28.140Z,8.75
2023-05-10T23:48:30.861Z,8.67
2023-05-10T23:51:33.176Z,8.64
2023-05-10T23:54:38.243Z,8.50
2023-05-10T23:57:40.720Z,8.49
